createdAt,value
2023-02-14T00:00:53.014Z,13.90
2023-02-14T00:01:53.019Z,13.90
2023-02-14T00:02:53.054Z,13.60
2023-02-14T00:03:52.996Z,14.30
2023-02-14T00:04:53.041Z,14.60
2023-02-14T00:05:52.979Z,13.10
2023-02-14T00:06:52.960Z,12.00
2023-02-14T00:07:52.997Z,13.10
2023-02-14T00:08:52.949Z,13.90
2023-02-14T00:09:52.932Z,14.80
2023-02-14T00:10:52.909Z,16.90
2023-02-14T00:11:52.915Z,15.80
2023-02-14T00:12:52.890Z,13.20
2023-02-14T00:13:52.900Z,12.80
2023-02-14T00:14:52.865Z,14.30
2023-02-14T00:15:52.889Z,14.00
2023-02-14T00:16:52.849Z,16.50
2023-02-14T00:17:52.845Z,14.00
2023-02-14T00:18:52.838Z,13.90
2023-02-14T00:19:52.822Z,15.80
2023-02-14T00:20:52.807Z,13.80
2023-02-14T00:21:52.809Z,13.50
2023-02-14T00:22:52.790Z,15.50
2023-02-14T00:23:52.799Z,14.50
2023-02-14T00:24:52.750Z,14.20
2023-02-14T00:25:52.748Z,13.40
2023-02-14T00:26:52.744Z,15.90
2023-02-14T00:27:52.731Z,15.30
2023-02-14T00:28:52.730Z,14.60
2023-02-14T00:29:52.748Z,15.70
2023-02-14T00:30:52.734Z,13.60
2023-02-14T00:31:52.740Z,15.80
2023-02-14T00:32:52.672Z,17.30
2023-02-14T00:33:52.673Z,15.50
2023-02-14T00:34:52.659Z,14.20
2023-02-14T00:35:52.651Z,14.60
2023-02-14T00:36:52.632Z,14.40
2023-02-14T00:37:52.621Z,15.10
2023-02-14T00:38:52.631Z,12.50
2023-02-14T00:39:52.600Z,15.50
2023-02-14T00:40:52.580Z,15.00
2023-02-14T00:41:52.584Z,13.10
2023-02-14T00:42:52.569Z,17.20
2023-02-14T00:43:52.572Z,12.80
2023-02-14T00:44:52.571Z,13.00
2023-02-14T00:45:52.554Z,16.30
2023-02-14T00:46:52.528Z,15.00
2023-02-14T00:47:52.529Z,14.50
2023-02-14T00:48:52.508Z,13.80
2023-02-14T00:49:52.508Z,14.00
2023-02-14T00:50:52.491Z,14.90
2023-02-14T00:51:52.473Z,13.20
2023-02-14T00:52:52.461Z,13.30
2023-02-14T00:53:52.462Z,14.20
2023-02-14T00:54:52.430Z,14.20
2023-02-14T00:55:52.431Z,16.00
2023-02-14T00:56:52.411Z,15.10
2023-02-14T00:57:52.413Z,15.10
2023-02-14T00:58:52.403Z,16.50
2023-02-14T00:59:52.386Z,13.60
2023-02-14T01:00:52.399Z,14.00
2023-02-14T01:01:52.360Z,16.90
2023-02-14T01:02:52.409Z,16.50
2023-02-14T01:03:52.367Z,15.60
2023-02-14T01:04:52.325Z,15.40
2023-02-14T01:05:52.323Z,15.40
2023-02-14T01:06:52.309Z,14.60
2023-02-14T01:07:52.302Z,16.10
2023-02-14T01:08:52.297Z,13.90
2023-02-14T01:09:52.273Z,13.60
2023-02-14T01:10:52.253Z,16.10
2023-02-14T01:11:52.251Z,16.00
2023-02-14T01:12:52.232Z,15.60
2023-02-14T01:13:52.254Z,14.20
2023-02-14T01:14:52.212Z,16.50
2023-02-14T01:15:52.207Z,14.90
2023-02-14T01:16:52.256Z,13.80
2023-02-14T01:17:52.181Z,16.60
2023-02-14T01:18:52.181Z,14.40
2023-02-14T01:19:52.163Z,15.10
2023-02-14T01:20:52.152Z,13.20
2023-02-14T01:21:52.139Z,17.00
2023-02-14T01:22:52.132Z,12.50
2023-02-14T01:23:52.145Z,16.70
2023-02-14T01:24:52.103Z,15.40
2023-02-14T01:25:52.090Z,13.20
2023-02-14T01:26:52.096Z,15.30
2023-02-14T01:27:52.062Z,14.10
2023-02-14T01:28:52.075Z,14.70
2023-02-14T01:29:52.094Z,13.60
2023-02-14T01:30:52.145Z,17.50
2023-02-14T01:31:52.092Z,12.70
2023-02-14T01:32:52.020Z,15.80
2023-02-14T01:33:52.015Z,16.00
2023-02-14T01:34:52.003Z,13.90
2023-02-14T01:35:51.984Z,15.00
2023-02-14T01:36:51.980Z,14.80
2023-02-14T01:37:51.968Z,13.00
2023-02-14T01:38:51.974Z,14.50
2023-02-14T01:39:51.937Z,15.50
2023-02-14T01:40:51.925Z,12.90
2023-02-14T01:41:51.921Z,12.80
2023-02-14T01:42:51.908Z,13.20
2023-02-14T01:43:51.912Z,14.10
2023-02-14T01:44:51.889Z,14.40
2023-02-14T01:45:51.899Z,15.80
2023-02-14T01:46:51.874Z,14.30
2023-02-14T01:47:51.858Z,15.20
2023-02-14T01:48:51.849Z,15.70
2023-02-14T01:49:51.839Z,16.00
2023-02-14T01:50:51.820Z,14.00
2023-02-14T01:51:51.859Z,12.80
2023-02-14T01:52:51.810Z,16.20
2023-02-14T01:53:51.816Z,14.70
2023-02-14T01:54:51.788Z,13.30
2023-02-14T01:55:51.778Z,13.80
2023-02-14T01:56:51.774Z,15.70
2023-02-14T01:57:51.740Z,16.80
2023-02-14T01:58:51.749Z,14.20
2023-02-14T01:59:51.729Z,14.40
2023-02-14T02:00:51.737Z,15.40
2023-02-14T02:01:51.762Z,15.00
2023-02-14T02:02:51.695Z,13.70
2023-02-14T02:03:51.685Z,15.40
2023-02-14T02:04:51.671Z,17.20
2023-02-14T02:05:51.663Z,15.20
2023-02-14T02:06:51.643Z,15.00
2023-02-14T02:07:51.651Z,14.90
2023-02-14T02:08:51.651Z,18.10
2023-02-14T02:09:51.611Z,15.70
2023-02-14T02:10:51.610Z,15.70
2023-02-14T02:11:51.604Z,16.60
2023-02-14T02:12:51.581Z,14.20
2023-02-14T02:13:51.575Z,15.30
2023-02-14T02:14:51.582Z,15.90
2023-02-14T02:15:51.546Z,17.80
2023-02-14T02:16:51.600Z,14.20
2023-02-14T02:17:51.522Z,15.00
2023-02-14T02:18:51.512Z,14.50
2023-02-14T02:19:51.536Z,15.70
2023-02-14T02:20:51.492Z,15.20
2023-02-14T02:21:51.473Z,15.90
2023-02-14T02:22:51.473Z,15.50
2023-02-14T02:23:51.465Z,15.50
2023-02-14T02:24:51.462Z,15.40
2023-02-14T02:25:51.436Z,15.10
2023-02-14T02:26:51.437Z,13.90
2023-02-14T02:27:51.417Z,16.80
2023-02-14T02:28:51.431Z,16.30
2023-02-14T02:29:51.435Z,17.40
2023-02-14T02:30:51.497Z,14.20
2023-02-14T02:31:51.481Z,16.10
2023-02-14T02:32:51.364Z,12.30
2023-02-14T02:33:51.357Z,16.40
2023-02-14T02:34:51.341Z,12.30
2023-02-14T02:35:51.323Z,12.50
2023-02-14T02:36:51.330Z,15.90
2023-02-14T02:37:51.304Z,12.80
2023-02-14T02:38:51.321Z,13.50
2023-02-14T02:39:51.288Z,13.20
2023-02-14T02:40:51.274Z,13.50
2023-02-14T02:41:51.255Z,12.80
2023-02-14T02:42:51.244Z,14.50
2023-02-14T02:43:51.262Z,14.20
2023-02-14T02:44:51.245Z,14.40
2023-02-14T02:45:51.274Z,12.60
2023-02-14T02:46:51.215Z,12.90
2023-02-14T02:47:51.212Z,15.70
2023-02-14T02:48:51.184Z,14.30
2023-02-14T02:49:51.194Z,12.10
2023-02-14T02:50:51.175Z,16.70
2023-02-14T02:51:51.152Z,16.10
2023-02-14T02:52:51.145Z,13.30
2023-02-14T02:53:51.139Z,13.50
2023-02-14T02:54:51.131Z,15.90
2023-02-14T02:55:51.116Z,14.30
2023-02-14T02:56:51.126Z,13.20
2023-02-14T02:57:51.092Z,13.50
2023-02-14T02:58:51.169Z,15.50
2023-02-14T02:59:51.082Z,17.50
2023-02-14T03:00:51.067Z,13.10
2023-02-14T03:01:51.085Z,16.90
2023-02-14T03:02:51.034Z,14.60
2023-02-14T03:03:51.038Z,14.00
2023-02-14T03:04:51.055Z,15.50
2023-02-14T03:05:51.009Z,14.50
2023-02-14T03:06:50.995Z,14.10
2023-02-14T03:07:50.993Z,16.70
2023-02-14T03:08:50.975Z,15.90
2023-02-14T03:09:50.973Z,15.50
2023-02-14T03:10:50.953Z,14.50
2023-02-14T03:11:50.946Z,13.80
2023-02-14T03:12:50.991Z,15.00
2023-02-14T03:13:50.958Z,14.70
2023-02-14T03:14:50.938Z,14.70
2023-02-14T03:15:50.922Z,14.90
2023-02-14T03:16:50.886Z,14.50
2023-02-14T03:17:50.885Z,16.10
2023-02-14T03:18:50.870Z,16.60
2023-02-14T03:19:50.883Z,15.60
2023-02-14T03:20:50.847Z,18.30
2023-02-14T03:21:50.842Z,15.10
2023-02-14T03:22:50.848Z,15.30
2023-02-14T03:23:50.829Z,15.80
2023-02-14T03:24:50.816Z,16.60
2023-02-14T03:25:50.801Z,14.00
2023-02-14T03:26:50.787Z,17.20
2023-02-14T03:27:50.780Z,14.80
2023-02-14T03:28:50.766Z,14.00
2023-02-14T03:29:50.784Z,17.50
2023-02-14T03:30:50.869Z,15.90
2023-02-14T03:31:50.849Z,16.50
2023-02-14T03:32:50.717Z,15.10
2023-02-14T03:33:50.713Z,15.50
2023-02-14T03:34:50.708Z,17.00
2023-02-14T03:35:50.722Z,16.00
2023-02-14T03:36:50.675Z,17.90
2023-02-14T03:37:50.684Z,17.80
2023-02-14T03:38:50.657Z,20.10
2023-02-14T03:39:50.657Z,18.90
2023-02-14T03:40:50.639Z,18.30
2023-02-14T03:41:50.636Z,16.50
2023-02-14T03:42:50.608Z,15.30
2023-02-14T03:43:50.608Z,17.40
2023-02-14T03:44:50.636Z,16.80
2023-02-14T03:45:50.588Z,17.60
2023-02-14T03:46:50.569Z,17.40
2023-02-14T03:47:50.566Z,17.10
2023-02-14T03:48:50.554Z,17.10
2023-02-14T03:49:50.567Z,18.20
2023-02-14T03:50:50.530Z,17.40
2023-02-14T03:51:50.520Z,17.10
2023-02-14T03:52:50.510Z,17.60
2023-02-14T03:53:50.508Z,19.10
2023-02-14T03:54:50.503Z,19.80
2023-02-14T03:55:50.500Z,18.80
2023-02-14T03:56:50.472Z,18.80
2023-02-14T03:57:50.448Z,19.30
2023-02-14T03:58:50.448Z,19.20
2023-02-14T03:59:50.428Z,20.10
2023-02-14T04:00:50.427Z,20.60
2023-02-14T04:01:50.447Z,21.10
2023-02-14T04:02:50.408Z,19.20
2023-02-14T04:03:50.450Z,16.40
2023-02-14T04:04:50.414Z,18.90
2023-02-14T04:05:50.367Z,20.30
2023-02-14T04:06:50.360Z,19.50
2023-02-14T04:07:50.347Z,19.90
2023-02-14T04:08:50.337Z,18.70
2023-02-14T04:09:50.339Z,17.50
2023-02-14T04:10:50.318Z,19.60
2023-02-14T04:11:50.357Z,19.30
2023-02-14T04:12:50.297Z,20.60
2023-02-14T04:13:50.278Z,17.40
2023-02-14T04:14:50.292Z,17.70
2023-02-14T04:15:50.372Z,19.30
2023-02-14T04:16:50.249Z,19.10
2023-02-14T04:17:50.253Z,23.30
2023-02-14T04:18:50.373Z,22.60
2023-02-14T04:19:50.228Z,19.80
2023-02-14T04:20:50.207Z,22.30
2023-02-14T04:21:50.206Z,17.70
2023-02-14T04:22:50.179Z,18.90
2023-02-14T04:23:50.180Z,21.30
2023-02-14T04:24:50.177Z,20.50
2023-02-14T04:25:50.168Z,20.30
2023-02-14T04:26:50.151Z,24.30
2023-02-14T04:27:50.140Z,19.70
2023-02-14T04:28:50.128Z,18.80
2023-02-14T04:29:50.250Z,21.60
2023-02-14T04:30:50.161Z,22.10
2023-02-14T04:31:50.267Z,20.80
2023-02-14T04:32:50.080Z,18.00
2023-02-14T04:33:50.169Z,19.10
2023-02-14T04:34:50.071Z,21.10
2023-02-14T04:35:50.049Z,21.00
2023-02-14T04:36:50.038Z,21.60
2023-02-14T04:37:50.035Z,21.50
2023-02-14T04:38:50.008Z,20.30
2023-02-14T04:39:50.034Z,19.80
2023-02-14T04:40:49.997Z,21.20
2023-02-14T04:41:49.986Z,23.10
2023-02-14T04:42:49.968Z,19.80
2023-02-14T04:43:49.969Z,21.00
2023-02-14T04:44:50.153Z,18.50
2023-02-14T04:45:50.214Z,20.50
2023-02-14T04:46:50.262Z,21.60
2023-02-14T04:47:49.918Z,21.70
2023-02-14T04:48:49.900Z,22.50
2023-02-14T04:49:49.907Z,21.80
2023-02-14T04:50:49.882Z,22.20
2023-02-14T04:51:49.878Z,22.80
2023-02-14T04:52:49.859Z,24.60
2023-02-14T04:53:49.872Z,21.80
2023-02-14T04:54:49.849Z,20.60
2023-02-14T04:55:49.865Z,21.50
2023-02-14T04:56:49.830Z,22.50
2023-02-14T04:57:49.809Z,22.80
2023-02-14T04:58:49.799Z,23.70
2023-02-14T04:59:49.789Z,28.30
2023-02-14T05:00:49.805Z,20.20
2023-02-14T05:01:49.929Z,23.00
2023-02-14T05:02:49.758Z,23.60
2023-02-14T05:03:49.750Z,27.20
2023-02-14T05:04:49.955Z,26.10
2023-02-14T05:05:49.725Z,28.50
2023-02-14T05:06:49.721Z,23.40
2023-02-14T05:07:49.704Z,25.80
2023-02-14T05:08:49.689Z,26.00
2023-02-14T05:09:49.677Z,29.10
2023-02-14T05:10:49.675Z,28.10
2023-02-14T05:11:49.673Z,27.60
2023-02-14T05:12:49.646Z,26.50
2023-02-14T05:13:49.655Z,25.60
2023-02-14T05:14:49.638Z,24.30
2023-02-14T05:15:49.618Z,29.20
2023-02-14T05:16:49.631Z,27.40
2023-02-14T05:17:49.596Z,26.10
2023-02-14T05:18:49.578Z,23.30
2023-02-14T05:19:49.583Z,23.70
2023-02-14T05:20:49.557Z,29.10
2023-02-14T05:21:49.576Z,27.30
2023-02-14T05:22:49.542Z,28.10
2023-02-14T05:23:49.529Z,26.90
2023-02-14T05:24:49.527Z,27.90
2023-02-14T05:25:49.509Z,30.40
2023-02-14T05:26:49.518Z,25.80
2023-02-14T05:27:49.487Z,30.50
2023-02-14T05:28:49.479Z,30.20
2023-02-14T05:29:49.545Z,26.50
2023-02-14T05:30:49.458Z,27.80
2023-02-14T05:31:49.529Z,28.40
2023-02-14T05:32:49.427Z,25.70
2023-02-14T05:33:49.418Z,26.00
2023-02-14T05:34:49.420Z,25.20
2023-02-14T05:35:49.399Z,27.30
2023-02-14T05:36:49.379Z,27.10
2023-02-14T05:37:49.379Z,27.60
2023-02-14T05:38:49.367Z,26.50
2023-02-14T05:39:49.362Z,28.40
2023-02-14T05:40:49.345Z,29.00
2023-02-14T05:41:49.345Z,30.50
2023-02-14T05:42:49.320Z,26.90
2023-02-14T05:43:49.337Z,28.30
2023-02-14T05:44:49.322Z,24.60
2023-02-14T05:45:49.342Z,25.80
2023-02-14T05:46:49.282Z,27.70
2023-02-14T05:47:49.310Z,27.30
2023-02-14T05:48:49.249Z,27.00
2023-02-14T05:49:49.264Z,28.80
2023-02-14T05:50:49.229Z,27.50
2023-02-14T05:51:49.220Z,26.80
2023-02-14T05:52:49.212Z,28.90
2023-02-14T05:53:49.201Z,27.10
2023-02-14T05:54:49.192Z,26.80
2023-02-14T05:55:49.182Z,27.10
2023-02-14T05:56:49.172Z,27.10
2023-02-14T05:57:49.171Z,25.40
2023-02-14T05:58:49.155Z,30.40
2023-02-14T05:59:49.163Z,25.30
2023-02-14T06:00:49.133Z,27.30
2023-02-14T06:01:49.151Z,27.60
2023-02-14T06:02:49.113Z,29.30
2023-02-14T06:03:49.123Z,27.20
2023-02-14T06:04:49.183Z,30.70
2023-02-14T06:05:49.083Z,31.50
2023-02-14T06:06:49.065Z,28.40
2023-02-14T06:07:49.065Z,29.80
2023-02-14T06:08:49.042Z,28.40
2023-02-14T06:09:49.047Z,30.60
2023-02-14T06:10:49.027Z,31.50
2023-02-14T06:11:49.016Z,28.40
2023-02-14T06:12:49.021Z,27.80
2023-02-14T06:13:49.009Z,29.30
2023-02-14T06:14:49.227Z,28.20
2023-02-14T06:15:48.976Z,30.10
2023-02-14T06:16:49.151Z,30.10
2023-02-14T06:17:48.970Z,29.70
2023-02-14T06:18:48.937Z,29.40
2023-02-14T06:19:48.946Z,31.80
2023-02-14T06:20:48.918Z,28.80
2023-02-14T06:21:48.915Z,28.60
2023-02-14T06:22:48.897Z,28.70
2023-02-14T06:23:48.889Z,29.90
2023-02-14T06:24:48.878Z,29.60
2023-02-14T06:25:48.877Z,31.70
2023-02-14T06:26:48.861Z,29.70
2023-02-14T06:27:49.424Z,33.20
2023-02-14T06:28:48.840Z,31.10
2023-02-14T06:29:48.847Z,30.70
2023-02-14T06:30:48.892Z,29.80
2023-02-14T06:31:48.926Z,31.30
2023-02-14T06:32:48.801Z,27.90
2023-02-14T06:33:48.786Z,29.50
2023-02-14T06:34:48.796Z,30.90
2023-02-14T06:35:48.773Z,29.40
2023-02-14T06:36:48.748Z,30.50
2023-02-14T06:37:48.791Z,31.70
2023-02-14T06:38:48.741Z,32.50
2023-02-14T06:39:48.728Z,30.60
2023-02-14T06:40:48.708Z,35.60
2023-02-14T06:41:48.698Z,31.80
2023-02-14T06:42:48.685Z,32.20
2023-02-14T06:43:48.835Z,33.00
2023-02-14T06:44:48.688Z,32.60
2023-02-14T06:45:48.720Z,34.10
2023-02-14T06:46:48.650Z,32.80
2023-02-14T06:47:48.639Z,31.90
2023-02-14T06:48:48.619Z,34.10
2023-02-14T06:49:48.630Z,33.60
2023-02-14T06:50:48.599Z,34.50
2023-02-14T06:51:48.600Z,35.20
2023-02-14T06:52:48.581Z,34.00
2023-02-14T06:53:48.580Z,34.20
2023-02-14T06:54:48.590Z,31.50
2023-02-14T06:55:48.570Z,35.70
2023-02-14T06:56:48.547Z,32.10
2023-02-14T06:57:48.539Z,34.90
2023-02-14T06:58:48.555Z,35.80
2023-02-14T06:59:48.532Z,38.50
2023-02-14T07:00:48.497Z,39.90
2023-02-14T07:01:48.581Z,40.50
2023-02-14T07:02:49.097Z,38.00
2023-02-14T07:03:48.468Z,35.90
2023-02-14T07:04:48.467Z,36.00
2023-02-14T07:05:48.439Z,35.60
2023-02-14T07:06:48.442Z,34.90
2023-02-14T07:07:48.433Z,37.20
2023-02-14T07:08:48.410Z,36.20
2023-02-14T07:09:48.419Z,35.20
2023-02-14T07:10:48.388Z,36.90
2023-02-14T07:11:48.380Z,35.00
2023-02-14T07:12:48.373Z,35.70
2023-02-14T07:13:49.540Z,36.00
2023-02-14T07:14:48.356Z,37.80
2023-02-14T07:15:48.384Z,38.00
2023-02-14T07:16:48.330Z,37.20
2023-02-14T07:17:48.311Z,32.80
2023-02-14T07:18:48.303Z,38.20
2023-02-14T07:19:48.321Z,37.00
2023-02-14T07:20:48.281Z,41.20
2023-02-14T07:21:48.274Z,37.50
2023-02-14T07:22:48.266Z,37.10
2023-02-14T07:23:48.250Z,37.50
2023-02-14T07:24:48.376Z,37.60
2023-02-14T07:25:48.222Z,37.20
2023-02-14T07:26:48.233Z,35.20
2023-02-14T07:27:48.211Z,38.30
2023-02-14T07:28:48.201Z,39.50
2023-02-14T07:29:48.242Z,35.50
2023-02-14T07:30:48.371Z,38.30
2023-02-14T07:31:48.280Z,38.40
2023-02-14T07:32:48.155Z,38.30
2023-02-14T07:33:48.140Z,36.40
2023-02-14T07:34:48.155Z,37.50
2023-02-14T07:35:48.201Z,34.30
2023-02-14T07:36:48.114Z,35.90
2023-02-14T07:37:48.102Z,38.00
2023-02-14T07:38:48.094Z,40.60
2023-02-14T07:39:48.110Z,36.50
2023-02-14T07:40:48.083Z,38.80
2023-02-14T07:41:48.061Z,36.60
2023-02-14T07:42:48.054Z,36.00
2023-02-14T07:43:48.034Z,34.90
2023-02-14T07:44:48.050Z,35.10
2023-02-14T07:45:48.003Z,39.60
2023-02-14T07:46:48.003Z,34.40
2023-02-14T07:47:47.991Z,34.60
2023-02-14T07:48:47.980Z,38.50
2023-02-14T07:49:48.021Z,34.10
2023-02-14T07:50:47.982Z,37.90
2023-02-14T07:51:47.951Z,36.00
2023-02-14T07:52:47.945Z,32.50
2023-02-14T07:53:47.921Z,39.30
2023-02-14T07:54:47.934Z,36.80
2023-02-14T07:55:47.901Z,35.90
2023-02-14T07:56:47.904Z,36.10
2023-02-14T07:57:47.961Z,35.20
2023-02-14T07:58:47.871Z,35.50
2023-02-14T07:59:47.862Z,37.70
2023-02-14T08:00:47.844Z,35.80
2023-02-14T08:01:47.879Z,34.70
2023-02-14T08:02:47.835Z,34.30
2023-02-14T08:03:47.811Z,36.30
2023-02-14T08:04:47.821Z,33.90
2023-02-14T08:05:47.793Z,34.00
2023-02-14T08:06:47.789Z,38.80
2023-02-14T08:07:47.788Z,35.10
2023-02-14T08:08:47.778Z,35.70
2023-02-14T08:09:47.757Z,38.30
2023-02-14T08:10:47.743Z,36.80
2023-02-14T08:11:47.731Z,33.10
2023-02-14T08:12:47.712Z,40.30
2023-02-14T08:13:47.722Z,34.30
2023-02-14T08:14:47.698Z,35.20
2023-02-14T08:15:47.710Z,35.20
2023-02-14T08:16:47.663Z,37.00
2023-02-14T08:17:47.656Z,34.50
2023-02-14T08:18:47.645Z,34.90
2023-02-14T08:19:47.651Z,35.80
2023-02-14T08:20:47.620Z,35.70
2023-02-14T08:21:47.624Z,35.10
2023-02-14T08:22:47.620Z,33.40
2023-02-14T08:23:47.718Z,35.40
2023-02-14T08:24:47.590Z,34.40
2023-02-14T08:25:47.569Z,35.20
2023-02-14T08:26:47.561Z,37.00
2023-02-14T08:27:47.547Z,36.60
2023-02-14T08:28:47.539Z,37.50
2023-02-14T08:29:47.636Z,36.90
2023-02-14T08:30:47.533Z,38.90
2023-02-14T08:31:47.658Z,36.50
2023-02-14T08:32:47.529Z,37.80
2023-02-14T08:33:47.490Z,35.60
2023-02-14T08:34:47.479Z,37.70
2023-02-14T08:35:47.463Z,34.50
2023-02-14T08:36:47.463Z,38.40
2023-02-14T08:37:47.437Z,34.40
2023-02-14T08:38:47.451Z,35.80
2023-02-14T08:39:47.421Z,37.10
2023-02-14T08:40:47.408Z,37.70
2023-02-14T08:41:47.401Z,36.50
2023-02-14T08:42:47.381Z,36.70
2023-02-14T08:43:47.389Z,36.20
2023-02-14T08:44:47.371Z,37.10
2023-02-14T08:45:47.361Z,34.30
2023-02-14T08:46:47.345Z,34.00
2023-02-14T08:47:47.363Z,34.60
2023-02-14T08:48:47.310Z,35.30
2023-02-14T08:49:47.319Z,34.30
2023-02-14T08:50:47.311Z,36.00
2023-02-14T08:51:47.285Z,34.50
2023-02-14T08:52:47.273Z,34.40
2023-02-14T08:53:47.261Z,37.00
2023-02-14T08:54:47.243Z,34.30
2023-02-14T08:55:47.249Z,34.90
2023-02-14T08:56:47.236Z,33.60
2023-02-14T08:57:47.252Z,34.00
2023-02-14T08:58:47.240Z,32.90
2023-02-14T08:59:47.251Z,33.10
2023-02-14T09:00:47.268Z,35.50
2023-02-14T09:01:47.274Z,35.90
2023-02-14T09:02:47.173Z,33.00
2023-02-14T09:03:47.181Z,31.30
2023-02-14T09:04:47.155Z,31.90
2023-02-14T09:05:47.142Z,30.50
2023-02-14T09:06:47.174Z,33.80
2023-02-14T09:07:47.116Z,34.30
2023-02-14T09:08:47.125Z,33.80
2023-02-14T09:09:47.103Z,34.10
2023-02-14T09:10:47.138Z,34.20
2023-02-14T09:11:47.075Z,31.60
2023-02-14T09:12:47.054Z,32.20
2023-02-14T09:13:47.050Z,35.30
2023-02-14T09:14:47.094Z,33.30
2023-02-14T09:15:47.024Z,34.40
2023-02-14T09:16:47.193Z,34.10
2023-02-14T09:17:47.038Z,32.10
2023-02-14T09:18:46.985Z,34.30
2023-02-14T09:19:46.998Z,31.70
2023-02-14T09:20:47.002Z,31.70
2023-02-14T09:21:47.048Z,33.60
2023-02-14T09:22:48.741Z,31.40
2023-02-14T09:23:46.946Z,30.60
2023-02-14T09:24:46.939Z,35.30
2023-02-14T09:25:46.934Z,30.40
2023-02-14T09:26:46.905Z,28.70
2023-02-14T09:27:46.899Z,30.20
2023-02-14T09:28:46.909Z,30.30
2023-02-14T09:29:46.896Z,31.30
2023-02-14T09:30:46.856Z,31.60
2023-02-14T09:31:46.926Z,32.00
2023-02-14T09:32:46.835Z,31.60
2023-02-14T09:33:46.835Z,29.50
2023-02-14T09:34:46.840Z,29.70
2023-02-14T09:35:46.809Z,31.20
2023-02-14T09:36:46.803Z,31.90
2023-02-14T09:37:46.796Z,30.60
2023-02-14T09:38:46.781Z,32.80
2023-02-14T09:39:46.778Z,32.00
2023-02-14T09:40:46.747Z,30.20
2023-02-14T09:41:46.743Z,32.30
2023-02-14T09:42:46.728Z,28.80
2023-02-14T09:43:46.718Z,31.50
2023-02-14T09:44:46.721Z,28.70
2023-02-14T09:45:46.760Z,32.00
2023-02-14T09:46:46.686Z,27.00
2023-02-14T09:47:46.684Z,32.90
2023-02-14T09:48:46.683Z,32.10
2023-02-14T09:49:46.820Z,30.40
2023-02-14T09:50:46.639Z,30.70
2023-02-14T09:51:46.634Z,31.20
2023-02-14T09:52:46.629Z,29.30
2023-02-14T09:53:46.619Z,28.80
2023-02-14T09:54:46.610Z,27.30
2023-02-14T09:55:46.595Z,27.60
2023-02-14T09:56:51.273Z,26.60
2023-02-14T09:57:47.569Z,30.00
2023-02-14T09:58:46.561Z,28.60
2023-02-14T09:59:46.550Z,29.10
2023-02-14T10:00:46.628Z,29.60
2023-02-14T10:01:46.597Z,27.10
2023-02-14T10:02:46.509Z,29.20
2023-02-14T10:03:46.509Z,27.00
2023-02-14T10:04:46.496Z,31.40
2023-02-14T10:05:46.501Z,27.10
2023-02-14T10:06:46.488Z,27.10
2023-02-14T10:07:46.462Z,30.00
2023-02-14T10:08:46.444Z,27.00
2023-02-14T10:09:46.452Z,27.80
2023-02-14T10:10:46.430Z,28.30
2023-02-14T10:11:46.466Z,25.80
2023-02-14T10:12:46.434Z,27.00
2023-02-14T10:13:46.398Z,28.10
2023-02-14T10:14:46.603Z,27.70
2023-02-14T10:15:46.363Z,28.00
2023-02-14T10:16:46.384Z,26.90
2023-02-14T10:17:46.346Z,28.40
2023-02-14T10:18:46.333Z,27.80
2023-02-14T10:19:46.338Z,34.40
2023-02-14T10:20:46.315Z,28.00
2023-02-14T10:21:47.954Z,28.80
2023-02-14T10:22:46.297Z,26.50
2023-02-14T10:23:46.314Z,25.70
2023-02-14T10:24:46.284Z,26.70
2023-02-14T10:25:46.255Z,29.20
2023-02-14T10:26:46.246Z,29.00
2023-02-14T10:27:46.233Z,29.90
2023-02-14T10:28:46.237Z,26.50
2023-02-14T10:29:46.295Z,27.30
2023-02-14T10:30:46.311Z,28.30
2023-02-14T10:31:46.293Z,27.70
2023-02-14T10:32:46.178Z,27.20
2023-02-14T10:33:46.172Z,29.10
2023-02-14T10:34:46.230Z,28.50
2023-02-14T10:35:46.187Z,27.20
2023-02-14T10:36:46.193Z,26.10
2023-02-14T10:37:46.163Z,26.90
2023-02-14T10:38:46.127Z,26.60
2023-02-14T10:39:46.124Z,26.20
2023-02-14T10:40:46.101Z,25.80
2023-02-14T10:41:46.092Z,26.10
2023-02-14T10:42:46.075Z,24.80
2023-02-14T10:43:46.062Z,24.70
2023-02-14T10:44:46.062Z,25.60
2023-02-14T10:45:46.089Z,25.30
2023-02-14T10:46:46.045Z,25.90
2023-02-14T10:47:46.055Z,23.60
2023-02-14T10:48:46.016Z,23.20
2023-02-14T10:49:46.004Z,26.70
2023-02-14T10:50:45.986Z,24.00
2023-02-14T10:51:45.974Z,23.50
2023-02-14T10:52:45.962Z,24.40
2023-02-14T10:53:45.956Z,24.00
2023-02-14T10:54:45.946Z,22.20
2023-02-14T10:55:45.948Z,21.90
2023-02-14T10:56:45.925Z,26.20
2023-02-14T10:57:45.905Z,23.10
2023-02-14T10:58:45.903Z,26.00
2023-02-14T10:59:45.900Z,24.20
2023-02-14T11:00:45.884Z,23.90
2023-02-14T11:01:45.959Z,23.10
2023-02-14T11:02:45.940Z,24.30
2023-02-14T11:03:45.944Z,20.50
2023-02-14T11:04:45.854Z,23.30
2023-02-14T11:05:46.708Z,21.60
2023-02-14T11:06:45.814Z,23.80
2023-02-14T11:07:45.815Z,26.00
2023-02-14T11:08:45.797Z,23.70
2023-02-14T11:09:45.784Z,21.90
2023-02-14T11:10:45.769Z,22.50
2023-02-14T11:11:45.768Z,23.80
2023-02-14T11:12:45.758Z,22.00
2023-02-14T11:13:45.742Z,19.70
2023-02-14T11:14:45.730Z,26.30
2023-02-14T11:15:45.710Z,20.70
2023-02-14T11:16:45.754Z,22.80
2023-02-14T11:17:45.708Z,21.10
2023-02-14T11:18:45.686Z,21.30
2023-02-14T11:19:45.682Z,22.10
2023-02-14T11:20:45.660Z,21.60
2023-02-14T11:21:45.665Z,22.80
2023-02-14T11:22:45.639Z,21.70
2023-02-14T11:23:45.630Z,22.10
2023-02-14T11:24:45.635Z,26.50
2023-02-14T11:25:45.604Z,21.70
2023-02-14T11:26:45.605Z,20.50
2023-02-14T11:27:45.588Z,19.80
2023-02-14T11:28:45.582Z,21.80
2023-02-14T11:29:45.581Z,19.60
2023-02-14T11:30:45.621Z,19.80
2023-02-14T11:31:45.617Z,21.00
2023-02-14T11:32:45.536Z,22.80
2023-02-14T11:33:45.510Z,21.40
2023-02-14T11:34:45.527Z,19.40
2023-02-14T11:35:45.507Z,20.00
2023-02-14T11:36:45.516Z,22.30
2023-02-14T11:37:45.520Z,19.40
2023-02-14T11:38:45.468Z,20.30
2023-02-14T11:39:45.451Z,20.70
2023-02-14T11:40:45.453Z,21.40
2023-02-14T11:41:45.432Z,20.80
2023-02-14T11:42:45.609Z,20.40
2023-02-14T11:43:45.434Z,19.40
2023-02-14T11:44:45.433Z,20.00
2023-02-14T11:45:45.468Z,21.10
2023-02-14T11:46:53.115Z,18.10
2023-02-14T11:47:46.405Z,20.90
2023-02-14T11:48:45.374Z,18.90
2023-02-14T11:49:45.348Z,19.70
2023-02-14T11:50:45.345Z,18.90
2023-02-14T11:51:45.375Z,19.60
2023-02-14T11:52:45.398Z,19.90
2023-02-14T11:53:45.520Z,19.20
2023-02-14T11:54:45.298Z,19.70
2023-02-14T11:55:45.279Z,21.80
2023-02-14T11:56:45.280Z,20.20
2023-02-14T11:57:45.258Z,20.20
2023-02-14T11:58:45.269Z,20.30
2023-02-14T11:59:45.254Z,19.70
2023-02-14T12:00:45.233Z,19.90
2023-02-14T12:01:45.212Z,22.30
2023-02-14T12:02:45.263Z,17.60
2023-02-14T12:03:45.252Z,19.60
2023-02-14T12:04:46.795Z,19.00
2023-02-14T12:05:45.174Z,19.80
2023-02-14T12:06:45.165Z,18.80
2023-02-14T12:07:45.145Z,16.90
2023-02-14T12:08:45.159Z,16.90
2023-02-14T12:09:45.147Z,17.20
2023-02-14T12:10:45.138Z,19.20
2023-02-14T12:11:45.112Z,19.40
2023-02-14T12:12:45.099Z,17.80
2023-02-14T12:13:45.133Z,17.90
2023-02-14T12:14:45.108Z,19.90
2023-02-14T12:15:45.116Z,19.50
2023-02-14T12:16:45.061Z,19.10
2023-02-14T12:17:45.052Z,18.70
2023-02-14T12:18:45.053Z,18.30
2023-02-14T12:19:45.036Z,17.70
2023-02-14T12:20:45.022Z,19.80
2023-02-14T12:21:45.003Z,17.80
2023-02-14T12:22:45.003Z,17.80
2023-02-14T12:23:45.015Z,19.10
2023-02-14T12:24:45.008Z,18.40
2023-02-14T12:25:45.070Z,18.80
2023-02-14T12:26:44.948Z,19.00
2023-02-14T12:27:44.965Z,18.90
2023-02-14T12:28:44.926Z,16.90
2023-02-14T12:29:44.937Z,17.00
2023-02-14T12:30:44.931Z,18.00
2023-02-14T12:31:45.021Z,19.10
2023-02-14T12:32:44.887Z,19.00
2023-02-14T12:33:46.871Z,19.00
2023-02-14T12:34:44.874Z,17.30
2023-02-14T12:35:44.855Z,18.70
2023-02-14T12:36:44.835Z,19.40
2023-02-14T12:37:46.976Z,24.10
2023-02-14T12:38:44.828Z,17.80
2023-02-14T12:39:44.934Z,18.00
2023-02-14T12:40:44.797Z,17.90
2023-02-14T12:41:44.804Z,17.80
2023-02-14T12:42:44.775Z,17.40
2023-02-14T12:43:44.758Z,16.90
2023-02-14T12:44:44.763Z,18.20
2023-02-14T12:45:44.759Z,20.80
2023-02-14T12:46:44.738Z,17.20
2023-02-14T12:47:44.720Z,19.20
2023-02-14T12:48:44.700Z,21.20
2023-02-14T12:49:44.713Z,18.30
2023-02-14T12:50:44.703Z,21.20
2023-02-14T12:51:44.674Z,18.00
2023-02-14T12:52:44.672Z,18.30